Time;durP1;ratioP1;P1;durP2;ratioP2;P2;SDS_P1;SDS_P2;PMS_P1;PMS_P2;Temp;Humidity;BMP_temperature;BMP_pressure;BME280_temperature;BME280_humidity;BME280_pressure;Samples;Min_cycle;Max_cycle;Signal;HPM_P1;HPM_P2
2022/06/20 00:01:44;;;;;;;13.07;1.42;;;12.80;99.90;;;;;;5013337;28;20025;-83
2022/06/20 00:04:14;;;;;;;8.88;0.50;;;12.80;99.90;;;;;;5013471;28;20390;-83
2022/06/20 00:06:40;;;;;;;3.97;0.52;;;12.70;99.90;;;;;;5013437;28;20119;-83
2022/06/20 00:09:06;;;;;;;6.43;0.45;;;12.70;99.90;;;;;;5014592;28;20466;-83
2022/06/20 00:11:40;;;;;;;6.03;0.60;;;12.70;99.90;;;;;;5013332;28;20038;-83
2022/06/20 00:14:06;;;;;;;7.72;0.60;;;12.70;99.90;;;;;;5013180;28;20437;-83
2022/06/20 00:16:33;;;;;;;7.82;0.50;;;12.60;99.90;;;;;;5013252;28;20026;-83
2022/06/20 00:18:59;;;;;;;7.70;0.50;;;12.60;99.90;;;;;;5013176;28;20124;-83
2022/06/20 00:21:25;;;;;;;10.57;0.93;;;12.60;99.90;;;;;;5013092;28;20088;-83
2022/06/20 00:23:51;;;;;;;8.18;0.63;;;12.50;99.90;;;;;;5013184;28;20022;-83
2022/06/20 00:26:17;;;;;;;8.88;0.60;;;12.50;99.90;;;;;;5012948;28;20022;-83
2022/06/20 00:28:44;;;;;;;5.95;0.52;;;12.50;99.90;;;;;;5013176;28;20049;-83
2022/06/20 00:31:11;;;;;;;6.70;0.50;;;12.60;99.90;;;;;;5012799;28;20026;-83
2022/06/20 00:33:36;;;;;;;5.13;0.47;;;12.50;99.90;;;;;;5013091;28;20065;-83
2022/06/20 00:36:02;;;;;;;6.40;0.63;;;12.50;99.90;;;;;;5012581;28;20445;-83
2022/06/20 00:38:28;;;;;;;5.22;0.82;;;12.50;99.90;;;;;;5012922;28;20553;-83
2022/06/20 00:41:00;;;;;;;7.70;0.65;;;12.60;99.90;;;;;;5012869;28;20117;-83
2022/06/20 00:43:33;;;;;;;2.30;0.47;;;12.60;99.90;;;;;;5012674;28;20096;-84
2022/06/20 00:46:04;;;;;;;7.30;0.60;;;12.60;99.90;;;;;;5013217;28;20034;-83
2022/06/20 00:48:37;;;;;;;5.57;0.70;;;12.60;99.90;;;;;;5012678;28;20037;-83
2022/06/20 00:51:14;;;;;;;7.40;0.80;;;12.60;99.90;;;;;;5012670;28;20038;-83
2022/06/20 00:53:48;;;;;;;5.32;0.50;;;12.70;99.90;;;;;;5012676;28;20065;-83
2022/06/20 00:56:24;;;;;;;8.02;0.68;;;12.70;99.90;;;;;;5012996;28;20026;-83
2022/06/20 00:59:00;;;;;;;7.43;0.73;;;12.70;99.90;;;;;;5013880;28;20130;-83
2022/06/20 01:01:33;;;;;;;7.75;1.55;;;12.70;99.90;;;;;;5013822;28;20021;-83
2022/06/20 01:04:07;;;;;;;3.80;0.40;;;12.80;99.90;;;;;;5012698;28;20026;-83
2022/06/20 01:06:37;;;;;;;6.55;0.70;;;12.80;99.90;;;;;;5029207;28;20030;-83
2022/06/20 01:09:07;;;;;;;7.63;0.50;;;12.80;99.90;;;;;;5012699;28;20409;-83
2022/06/20 01:11:46;;;;;;;5.63;0.68;;;12.80;99.90;;;;;;5012316;28;20045;-84
2022/06/20 01:14:38;;;;;;;5.72;0.40;;;12.90;99.90;;;;;;5012232;28;20021;-83
2022/06/20 01:17:28;;;;;;;5.87;1.00;;;13.00;99.90;;;;;;5012529;28;20025;-84
2022/06/20 01:20:02;;;;;;;6.38;0.60;;;13.00;99.90;;;;;;5013584;28;20452;-83
2022/06/20 01:22:37;;;;;;;6.53;0.50;;;13.10;99.90;;;;;;5013711;28;20509;-84
2022/06/20 01:25:21;;;;;;;5.70;0.50;;;13.10;99.90;;;;;;5013857;28;20029;-84
2022/06/20 01:27:49;;;;;;;12.38;0.73;;;13.10;99.90;;;;;;5028786;28;20062;-83
2022/06/20 01:30:15;;;;;;;5.88;0.65;;;13.10;99.90;;;;;;5028587;28;20041;-83
2022/06/20 01:32:43;;;;;;;4.72;0.52;;;13.10;99.90;;;;;;5013375;28;20022;-83
2022/06/20 01:35:11;;;;;;;4.43;0.50;;;13.10;99.90;;;;;;5019111;28;20064;-83
2022/06/20 01:37:41;;;;;;;5.25;0.60;;;13.10;99.90;;;;;;5032980;28;20075;-83
2022/06/20 01:40:12;;;;;;;4.15;0.73;;;13.10;99.90;;;;;;5036750;28;20030;-83
2022/06/20 01:42:39;;;;;;;6.90;0.80;;;13.00;99.90;;;;;;5036907;28;20025;-83
2022/06/20 01:48:15;;;;;;;5.45;0.73;;;13.00;99.90;;;;;;5037587;28;20064;-84
2022/06/20 01:50:42;;;;;;;4.70;0.50;;;13.00;99.90;;;;;;5019537;28;20033;-84
2022/06/20 01:53:09;;;;;;;6.85;0.90;;;13.00;99.90;;;;;;5019194;28;20572;-84
2022/06/20 01:55:36;;;;;;;3.15;0.90;;;12.90;99.90;;;;;;5035644;28;20025;-84
2022/06/20 01:58:10;;;;;;;6.93;0.68;;;12.90;99.90;;;;;;5019288;28;20033;-84
2022/06/20 02:00:36;;;;;;;4.00;0.65;;;12.80;99.90;;;;;;5019061;28;20029;-83
2022/06/20 02:03:08;;;;;;;4.93;0.50;;;12.80;99.90;;;;;;5019344;28;20022;-83
2022/06/20 02:05:34;;;;;;;6.20;1.17;;;12.70;99.90;;;;;;5036716;28;20033;-83
2022/06/20 02:08:04;;;;;;;5.32;0.90;;;12.70;99.90;;;;;;5019098;28;20025;-83
2022/06/20 02:10:51;;;;;;;8.50;1.05;;;12.60;99.90;;;;;;5018922;28;20030;-83
2022/06/20 02:13:18;;;;;;;7.88;0.70;;;12.60;99.90;;;;;;5019007;28;20025;-83
2022/06/20 02:15:46;;;;;;;3.78;0.70;;;12.50;99.90;;;;;;5018780;28;20040;-83
2022/06/20 02:18:13;;;;;;;4.40;1.10;;;12.40;99.90;;;;;;5018836;28;20065;-83
2022/06/20 02:20:46;;;;;;;4.90;0.65;;;12.40;99.90;;;;;;5018601;28;20025;-83
2022/06/20 02:23:19;;;;;;;;;;;12.40;99.90;;;;;;5019424;28;20050;-83
2022/06/20 02:25:47;;;;;;;9.52;0.80;;;12.30;99.90;;;;;;5018607;28;19959;-83
2022/06/20 02:28:18;;;;;;;6.65;0.70;;;12.20;99.90;;;;;;5018544;28;20040;-83
2022/06/20 02:30:44;;;;;;;4.63;0.70;;;12.20;99.90;;;;;;5018713;28;20037;-83
2022/06/20 02:33:23;;;;;;;4.10;1.05;;;12.10;99.90;;;;;;5018534;28;20040;-83
2022/06/20 02:35:49;;;;;;;7.63;0.70;;;12.10;99.90;;;;;;5018263;28;20123;-83
2022/06/20 02:38:16;;;;;;;3.15;0.75;;;12.10;99.90;;;;;;5018305;28;20017;-83
2022/06/20 02:40:42;;;;;;;5.93;1.05;;;12.10;99.90;;;;;;5018969;28;20055;-83
2022/06/20 02:43:16;;;;;;;5.72;0.90;;;12.10;99.90;;;;;;5018385;28;20530;-83
2022/06/20 02:45:44;;;;;;;6.28;0.70;;;12.10;99.90;;;;;;5018217;28;20036;-83
2022/06/20 02:48:11;;;;;;;2.65;0.63;;;12.10;99.90;;;;;;5018266;28;20022;-83
2022/06/20 02:50:48;;;;;;;7.35;0.80;;;12.10;99.90;;;;;;5017778;28;20037;-83
2022/06/20 02:53:21;;;;;;;10.30;0.85;;;12.20;99.90;;;;;;5018083;28;20025;-83
2022/06/20 02:55:49;;;;;;;4.75;0.60;;;12.20;99.90;;;;;;5035675;28;20029;-83
2022/06/20 02:58:20;;;;;;;6.63;0.70;;;12.30;99.90;;;;;;5018082;28;20029;-83
2022/06/20 03:00:53;;;;;;;7.40;1.13;;;12.30;99.90;;;;;;5035620;28;20473;-83
2022/06/20 03:03:32;;;;;;;9.82;1.05;;;12.30;99.90;;;;;;5017871;28;20035;-83
2022/06/20 03:05:59;;;;;;;11.20;1.00;;;12.40;99.90;;;;;;5017709;28;20032;-83
2022/06/20 03:08:25;;;;;;;6.55;0.90;;;12.40;99.90;;;;;;5035658;28;20028;-83
2022/06/20 03:10:53;;;;;;;7.18;0.93;;;12.40;99.90;;;;;;5035159;28;20482;-83
2022/06/20 03:13:20;;;;;;;7.32;0.80;;;12.50;99.90;;;;;;5035669;28;20021;-83
2022/06/20 03:15:47;;;;;;;8.35;0.90;;;12.50;99.90;;;;;;5035176;28;20086;-83
2022/06/20 03:18:16;;;;;;;6.30;0.85;;;12.50;99.90;;;;;;5017791;28;20026;-83
2022/06/20 03:20:42;;;;;;;10.13;1.10;;;12.50;99.90;;;;;;5017610;28;20037;-83
2022/06/20 03:23:20;;;;;;;7.82;1.08;;;12.60;99.90;;;;;;5035269;28;20381;-83
2022/06/20 03:25:46;;;;;;;13.88;1.58;;;12.60;99.90;;;;;;5035312;28;20112;-83
2022/06/20 03:28:17;;;;;;;7.00;1.30;;;12.60;99.90;;;;;;5034144;28;20578;-84
2022/06/20 03:30:43;;;;;;;6.63;1.05;;;12.60;99.90;;;;;;5034008;28;20095;-83
2022/06/20 03:33:13;;;;;;;5.85;1.00;;;12.70;99.90;;;;;;5033905;28;20026;-83
2022/06/20 03:35:42;;;;;;;9.57;1.33;;;12.70;99.90;;;;;;5017324;28;20581;-84
2022/06/20 03:38:10;;;;;;;10.60;1.10;;;12.70;99.90;;;;;;5033643;28;20477;-83
2022/06/20 03:40:39;;;;;;;5.68;0.90;;;12.70;99.90;;;;;;5034966;28;20025;-84
2022/06/20 03:43:06;;;;;;;6.20;0.75;;;12.80;99.90;;;;;;5017403;28;20025;-83
2022/06/20 03:45:35;;;;;;;8.63;0.70;;;12.80;99.90;;;;;;5017060;28;20076;-83
2022/06/20 03:48:17;;;;;;;7.97;0.90;;;12.80;99.90;;;;;;5017151;28;20108;-83
2022/06/20 03:50:51;;;;;;;8.20;1.10;;;12.80;99.90;;;;;;5017028;28;20400;-84
2022/06/20 03:53:36;;;;;;;9.57;1.27;;;12.90;99.90;;;;;;5017123;28;20026;-84
2022/06/20 03:56:24;;;;;;;5.13;0.85;;;12.90;99.90;;;;;;5017196;28;20562;-83
2022/06/20 03:59:07;;;;;;;7.15;1.38;;;13.00;99.90;;;;;;5016841;28;20053;-84
2022/06/20 04:02:03;;;;;;;3.58;0.80;;;13.00;99.90;;;;;;5016448;28;20022;-84
2022/06/20 04:04:46;;;;;;;8.98;1.00;;;13.10;99.90;;;;;;5016768;28;20034;-84
2022/06/20 04:07:21;;;;;;;5.50;0.80;;;13.20;99.90;;;;;;5016774;28;20063;-84
2022/06/20 04:12:56;;;;;;;8.40;1.42;;;13.30;99.90;;;;;;5034797;28;20043;-84
2022/06/20 04:15:29;;;;;;;7.60;0.82;;;13.40;99.90;;;;;;5016740;28;20025;-83
2022/06/20 04:18:27;;;;;;;6.93;0.88;;;13.50;99.90;;;;;;5016604;28;20033;-84
2022/06/20 04:21:03;;;;;;;7.63;1.13;;;13.50;99.90;;;;;;5016476;28;20061;-83
2022/06/20 04:23:36;;;;;;;10.65;1.00;;;13.60;99.90;;;;;;5016612;28;20021;-83
2022/06/20 04:26:12;;;;;;;9.50;0.90;;;13.60;99.90;;;;;;5016308;28;20026;-84
2022/06/20 04:28:54;;;;;;;6.90;0.80;;;13.60;99.90;;;;;;5034144;28;20022;-84
2022/06/20 04:31:36;;;;;;;8.43;0.98;;;13.70;99.90;;;;;;5016407;28;20041;-84
2022/06/20 04:34:20;;;;;;;8.13;1.55;;;13.70;99.90;;;;;;5016308;28;20478;-84
2022/06/20 04:37:03;;;;;;;6.45;0.88;;;13.80;99.90;;;;;;5033736;28;20053;-84
2022/06/20 04:39:43;;;;;;;9.65;0.90;;;13.80;99.90;;;;;;5016304;28;20022;-83
2022/06/20 04:42:18;;;;;;;6.88;1.00;;;13.80;99.90;;;;;;5016266;28;20485;-84
2022/06/20 04:45:04;;;;;;;5.78;1.00;;;13.80;99.90;;;;;;5016428;28;20497;-84
2022/06/20 04:47:46;;;;;;;6.20;0.88;;;13.90;99.90;;;;;;5033903;28;20120;-84
2022/06/20 04:50:28;;;;;;;6.18;0.80;;;13.90;99.90;;;;;;5015955;28;20029;-84
2022/06/20 04:53:00;;;;;;;6.45;0.80;;;13.90;99.90;;;;;;5016059;28;20060;-84
2022/06/20 04:55:28;;;;;;;8.80;1.35;;;13.90;99.90;;;;;;5015894;28;20052;-84
2022/06/20 04:57:57;;;;;;;8.77;1.20;;;13.90;99.90;;;;;;5033826;28;20031;-84
2022/06/20 05:00:39;;;;;;;9.57;1.02;;;14.00;99.90;;;;;;5015883;28;20219;-84
2022/06/20 05:03:06;;;;;;;7.22;0.70;;;14.00;99.90;;;;;;5015994;28;20026;-83
2022/06/20 05:05:38;;;;;;;6.18;0.77;;;14.10;99.90;;;;;;5016087;28;20025;-84
2022/06/20 05:08:07;;;;;;;6.47;0.70;;;14.20;99.90;;;;;;5033197;28;20040;-84
2022/06/20 05:10:48;;;;;;;9.05;1.02;;;14.30;99.90;;;;;;5033306;28;20033;-84
2022/06/20 05:13:21;;;;;;;8.60;0.82;;;14.40;99.90;;;;;;5016173;28;20084;-83
2022/06/20 05:15:49;;;;;;;4.07;0.60;;;14.50;99.90;;;;;;5015641;28;20124;-84
2022/06/20 05:18:41;;;;;;;7.38;0.80;;;14.60;99.90;;;;;;5016077;28;20021;-84
2022/06/20 05:21:12;;;;;;;5.57;0.55;;;15.00;99.90;;;;;;5015961;28;20029;-84
2022/06/20 05:23:44;;;;;;;5.75;0.93;;;15.50;99.90;;;;;;5015696;28;20060;-84
2022/06/20 05:26:15;;;;;;;5.15;0.50;;;16.00;99.90;;;;;;5015648;28;20018;-84
2022/06/20 05:28:42;;;;;;;3.75;0.85;;;16.20;99.90;;;;;;5015644;28;20034;-84
2022/06/20 05:31:09;;;;;;;4.07;0.40;;;16.40;99.90;;;;;;5033039;28;20128;-84
2022/06/20 05:33:47;;;;;;;5.07;0.70;;;16.40;99.90;;;;;;5033136;28;20021;-84
2022/06/20 05:36:25;;;;;;;7.35;0.70;;;16.40;99.90;;;;;;5015350;28;20088;-83
2022/06/20 05:39:15;;;;;;;7.47;0.98;;;16.30;99.90;;;;;;5015773;28;20431;-85
2022/06/20 05:41:41;;;;;;;6.43;0.77;;;16.10;99.90;;;;;;5033316;28;20013;-84
2022/06/20 05:44:16;;;;;;;5.90;0.50;;;16.00;99.90;;;;;;5032930;28;20079;-84
2022/06/20 05:46:44;;;;;;;2.63;0.50;;;15.90;99.90;;;;;;5033167;28;20105;-84
2022/06/20 05:49:17;;;;;;;8.30;1.08;;;15.70;99.90;;;;;;5015521;28;20026;-84
2022/06/20 05:51:44;;;;;;;5.25;0.65;;;15.60;99.90;;;;;;5015420;28;20083;-84
2022/06/20 05:54:20;;;;;;;3.90;0.50;;;15.70;99.90;;;;;;5031954;28;20429;-84
2022/06/20 05:56:54;;;;;;;6.82;0.90;;;15.70;99.90;;;;;;5015543;28;20079;-84
2022/06/20 05:59:43;;;;;;;6.20;0.73;;;15.70;99.90;;;;;;5015554;28;20477;-84
2022/06/20 06:02:27;;;;;;;5.22;0.82;;;15.80;99.90;;;;;;5015483;28;20033;-84
2022/06/20 06:05:13;;;;;;;5.63;0.50;;;15.80;99.90;;;;;;5015573;28;20025;-84
2022/06/20 06:08:20;;;;;;;8.02;0.60;;;15.90;99.90;;;;;;5031849;28;20112;-84
2022/06/20 06:10:53;;;;;;;6.47;0.80;;;16.10;99.90;;;;;;5012053;28;20049;-84
2022/06/20 06:13:51;;;;;;;5.55;0.90;;;16.20;99.90;;;;;;5033130;28;20024;-84
2022/06/20 06:19:29;;;;;;;6.55;1.13;;;16.30;99.90;;;;;;5033025;28;20463;-86
2022/06/20 06:21:58;;;;;;;6.82;0.93;;;16.30;99.90;;;;;;5032813;28;20017;-85
2022/06/20 06:24:25;;;;;;;6.80;0.98;;;16.30;99.90;;;;;;5016187;28;20037;-84
2022/06/20 06:26:54;;;;;;;7.10;1.02;;;16.20;99.90;;;;;;5036650;28;20091;-85
2022/06/20 06:29:29;;;;;;;5.85;0.88;;;16.20;99.90;;;;;;5034993;28;20561;-85
2022/06/20 06:32:02;;;;;;;5.80;0.77;;;16.10;99.90;;;;;;5035254;28;20037;-85
2022/06/20 06:34:49;;;;;;;6.82;0.88;;;16.00;99.90;;;;;;5035444;28;20064;-85
2022/06/20 06:37:26;;;;;;;6.05;0.88;;;16.00;99.90;;;;;;5035336;28;20026;-84
2022/06/20 06:40:10;;;;;;;6.38;1.02;;;15.80;99.90;;;;;;5035027;28;20029;-85
2022/06/20 06:42:38;;;;;;;4.28;0.85;;;15.80;99.90;;;;;;5036283;28;20477;-84
2022/06/20 06:45:05;;;;;;;5.13;0.80;;;15.80;99.90;;;;;;5036170;28;20060;-84
2022/06/20 06:47:40;;;;;;;5.10;0.88;;;15.80;99.90;;;;;;5034832;28;20035;-84
2022/06/20 06:50:35;;;;;;;10.13;1.15;;;16.00;99.90;;;;;;5035884;28;20060;-85
2022/06/20 06:53:10;;;;;;;5.50;0.90;;;16.30;99.90;;;;;;5035023;28;20033;-84
2022/06/20 06:55:41;;;;;;;9.23;1.55;;;16.60;99.90;;;;;;5034946;28;20064;-84
2022/06/20 06:58:37;;;;;;;4.38;0.90;;;16.90;99.90;;;;;;5036008;28;20033;-85
2022/06/20 07:01:14;;;;;;;4.00;0.60;;;17.20;99.90;;;;;;5036072;28;20017;-85
2022/06/20 07:03:45;;;;;;;6.28;1.20;;;17.30;99.90;;;;;;5035183;28;20029;-85
2022/06/20 07:06:28;;;;;;;5.05;0.82;;;17.50;99.90;;;;;;5035795;28;20052;-84
2022/06/20 07:09:15;;;;;;;7.45;1.02;;;17.50;99.90;;;;;;5035991;28;20026;-85
2022/06/20 07:11:52;;;;;;;4.68;0.70;;;17.40;99.90;;;;;;5034449;28;20504;-84
2022/06/20 07:14:22;;;;;;;4.38;0.80;;;17.30;99.90;;;;;;5017875;28;20034;-84
2022/06/20 07:17:05;;;;;;;5.65;0.68;;;17.40;99.90;;;;;;5017729;28;20542;-84
2022/06/20 07:19:30;;;;;;;9.85;0.80;;;17.40;99.90;;;;;;5017935;28;20080;-84
2022/06/20 07:21:58;;;;;;;5.65;0.90;;;17.50;99.90;;;;;;5035524;28;20049;-84
2022/06/20 07:24:27;;;;;;;6.47;1.05;;;17.80;99.90;;;;;;5017754;28;20038;-84
2022/06/20 07:27:00;;;;;;;4.55;0.60;;;18.00;99.90;;;;;;5017720;28;20021;-84
2022/06/20 07:29:32;;;;;;;5.60;0.75;;;18.00;99.90;;;;;;5017780;28;20500;-84
2022/06/20 07:32:15;;;;;;;6.80;0.90;;;18.10;99.90;;;;;;5017663;28;20375;-84
2022/06/20 07:34:43;;;;;;;;;;;18.20;99.90;;;;;;5017855;28;20067;-84
2022/06/20 07:37:11;;;;;;;6.55;0.85;;;18.10;99.90;;;;;;5016567;28;19913;-84
2022/06/20 07:39:36;;;;;;;4.38;1.00;;;18.10;99.90;;;;;;5034019;28;20029;-85
2022/06/20 07:42:08;;;;;;;7.70;0.80;;;18.20;99.80;;;;;;5035257;28;20071;-84
2022/06/20 07:44:42;;;;;;;3.23;0.70;;;18.30;98.80;;;;;;5017327;28;20506;-83
2022/06/20 07:47:30;;;;;;;3.80;0.80;;;18.40;97.90;;;;;;5017391;28;20764;-84
2022/06/20 07:50:01;;;;;;;3.22;0.60;;;18.50;97.70;;;;;;5017436;28;20025;-84
2022/06/20 07:52:35;;;;;;;5.15;0.50;;;18.60;96.70;;;;;;5017312;28;20124;-84
2022/06/20 07:55:07;;;;;;;6.88;0.70;;;18.50;96.50;;;;;;5017118;28;20014;-84
2022/06/20 07:57:35;;;;;;;;;;;18.50;96.30;;;;;;5017542;28;20064;-84
2022/06/20 08:00:21;;;;;;;3.38;0.68;;;18.60;96.70;;;;;;5017099;28;19905;-84
2022/06/20 08:02:55;;;;;;;2.92;0.50;;;18.80;95.60;;;;;;5017140;28;20021;-85
2022/06/20 08:05:32;;;;;;;3.17;0.68;;;19.00;94.90;;;;;;5016765;28;20482;-85
2022/06/20 08:08:19;;;;;;;3.55;0.50;;;18.90;94.70;;;;;;5034675;28;20470;-85
2022/06/20 08:10:56;;;;;;;4.93;0.75;;;18.70;95.00;;;;;;5016712;28;20497;-85
2022/06/20 08:13:35;;;;;;;7.53;1.13;;;18.70;95.20;;;;;;5017130;28;20025;-84
2022/06/20 08:16:14;;;;;;;6.30;0.73;;;18.40;95.40;;;;;;5034453;28;20025;-85
2022/06/20 08:18:40;;;;;;;2.70;0.60;;;18.20;95.90;;;;;;5016799;28;20014;-84
2022/06/20 08:21:33;;;;;;;5.97;1.23;;;18.00;96.10;;;;;;5034219;28;20108;-84
2022/06/20 08:24:04;;;;;;;7.10;0.90;;;17.90;96.60;;;;;;5016672;28;20057;-84
2022/06/20 08:26:47;;;;;;;5.95;1.20;;;17.80;96.70;;;;;;5016652;28;20485;-84
2022/06/20 08:29:24;;;;;;;5.10;0.85;;;17.90;96.60;;;;;;5033448;28;20029;-85
2022/06/20 08:31:53;;;;;;;6.90;0.80;;;18.10;96.60;;;;;;5016528;28;20034;-85
2022/06/20 08:34:30;;;;;;;5.22;0.88;;;18.30;95.70;;;;;;5016678;28;20059;-84
2022/06/20 08:37:20;;;;;;;8.77;1.27;;;18.30;95.40;;;;;;4993414;28;20042;-84
2022/06/20 08:39:59;;;;;;;5.40;0.60;;;18.30;95.10;;;;;;4993668;28;20018;-84
2022/06/20 08:42:34;;;;;;;7.72;0.98;;;18.30;94.30;;;;;;4993694;28;20397;-85
2022/06/20 08:45:11;;;;;;;4.57;0.52;;;18.40;94.00;;;;;;5010092;28;20026;-84
2022/06/20 08:47:59;;;;;;;5.28;0.80;;;18.50;93.80;;;;;;5009549;28;20026;-84
2022/06/20 08:51:07;;;;;;;4.30;0.80;;;18.70;93.70;;;;;;5009715;28;20092;-85
2022/06/20 08:53:54;;;;;;;3.00;0.73;;;19.20;93.40;;;;;;4993420;28;20030;-84
2022/06/20 08:56:35;;;;;;;6.32;0.80;;;19.60;93.00;;;;;;5009657;28;20113;-84
2022/06/20 08:59:07;;;;;;;6.10;0.90;;;20.00;91.70;;;;;;5009687;28;20030;-84
2022/06/20 09:01:51;;;;;;;6.65;1.20;;;19.90;90.60;;;;;;5009896;28;20049;-84
2022/06/20 09:04:56;;;;;;;5.25;0.80;;;19.60;90.70;;;;;;4994375;28;20034;-85
2022/06/20 09:07:42;;;;;;;5.90;0.65;;;19.50;91.00;;;;;;4992999;28;20113;-85
2022/06/20 09:10:33;;;;;;;4.72;0.75;;;19.50;90.50;;;;;;4992613;28;20038;-84
2022/06/20 09:13:16;;;;;;;4.57;0.50;;;19.50;90.20;;;;;;5009500;28;20089;-84
2022/06/20 09:15:59;;;;;;;6.80;0.60;;;19.50;89.40;;;;;;5009317;28;20022;-85
2022/06/20 09:19:09;;;;;;;7.38;1.02;;;19.60;89.70;;;;;;4993206;28;20039;-84
2022/06/20 09:22:07;;;;;;;2.70;0.70;;;19.70;88.60;;;;;;4994333;28;20026;-84
2022/06/20 09:24:48;;;;;;;6.85;0.80;;;19.40;89.10;;;;;;4994171;28;20019;-84
2022/06/20 09:27:35;;;;;;;4.20;0.70;;;19.10;89.50;;;;;;4994146;28;20090;-84
2022/06/20 09:30:09;;;;;;;4.53;0.70;;;19.10;89.90;;;;;;5009154;28;20034;-84
2022/06/20 09:33:20;;;;;;;5.13;0.70;;;19.20;87.90;;;;;;4993878;28;20026;-84
2022/06/20 09:36:07;;;;;;;4.38;0.70;;;19.30;87.40;;;;;;5015300;28;20041;-84
2022/06/20 09:38:47;;;;;;;3.22;0.60;;;19.60;87.20;;;;;;5033258;28;20040;-84
2022/06/20 09:41:29;;;;;;;6.32;0.70;;;19.80;86.80;;;;;;5015472;28;20444;-84
2022/06/20 09:44:26;;;;;;;4.47;0.70;;;19.80;86.00;;;;;;5015501;28;20022;-85
2022/06/20 09:47:10;;;;;;;7.57;1.35;;;19.70;86.30;;;;;;5015517;28;20033;-84
2022/06/20 09:49:47;;;;;;;3.08;0.60;;;19.80;86.40;;;;;;5033382;28;20023;-84
2022/06/20 09:52:16;;;;;;;6.53;1.05;;;19.90;85.70;;;;;;5015316;28;20040;-85
2022/06/20 09:55:00;;;;;;;5.10;0.80;;;20.00;84.70;;;;;;5033098;28;20030;-85
2022/06/20 09:57:53;;;;;;;3.78;0.80;;;20.00;84.90;;;;;;5033331;28;20044;-84
2022/06/20 10:00:35;;;;;;;5.30;1.10;;;20.20;84.60;;;;;;5017803;28;20013;-85
2022/06/20 10:03:18;;;;;;;2.42;0.47;;;20.40;84.50;;;;;;5036727;28;20021;-84
2022/06/20 10:06:01;;;;;;;4.88;0.95;;;20.40;83.80;;;;;;5038843;28;20040;-84
2022/06/20 10:08:45;;;;;;;7.10;0.70;;;20.40;83.90;;;;;;5056787;28;20484;-84
2022/06/20 10:11:23;;;;;;;5.32;0.90;;;20.30;83.70;;;;;;5039107;28;20139;-84
2022/06/20 10:14:07;;;;;;;4.65;0.80;;;20.30;84.80;;;;;;5038765;28;20024;-84
2022/06/20 10:16:52;;;;;;;4.05;0.80;;;20.30;83.30;;;;;;5038765;28;20033;-85
2022/06/20 10:19:53;;;;;;;5.70;0.80;;;20.20;84.00;;;;;;5038782;28;20104;-84
2022/06/20 10:22:49;;;;;;;6.43;0.68;;;20.20;83.20;;;;;;5038744;28;20048;-85
2022/06/20 10:25:31;;;;;;;7.07;0.60;;;20.20;82.60;;;;;;5038721;28;20036;-84
2022/06/20 10:28:05;;;;;;;4.88;0.50;;;20.30;82.30;;;;;;5038573;28;20020;-85
2022/06/20 10:30:41;;;;;;;6.63;0.90;;;20.50;82.60;;;;;;5038592;28;20044;-84
2022/06/20 10:33:35;;;;;;;4.07;0.60;;;20.90;81.30;;;;;;5056167;28;20021;-85
2022/06/20 10:36:21;;;;;;;4.10;0.85;;;21.00;79.90;;;;;;5034644;28;20084;-85
2022/06/20 10:38:55;;;;;;;4.40;0.68;;;20.90;79.50;;;;;;5035192;28;20034;-84
2022/06/20 10:41:51;;;;;;;5.13;0.60;;;20.70;79.50;;;;;;5035295;28;20366;-84
2022/06/20 10:44:32;;;;;;;4.28;0.60;;;20.60;80.10;;;;;;5036223;28;20017;-85
2022/06/20 10:47:18;;;;;;;4.18;0.65;;;20.70;79.80;;;;;;5034843;28;20034;-84
2022/06/20 10:49:54;;;;;;;4.43;0.90;;;20.90;79.00;;;;;;5034833;28;20040;-85
2022/06/20 10:52:33;;;;;;;3.78;0.52;;;20.90;78.00;;;;;;5034711;28;20113;-84
2022/06/20 10:55:22;;;;;;;4.80;0.90;;;21.00;79.00;;;;;;5035901;28;20393;-84
2022/06/20 10:58:08;;;;;;;8.63;0.75;;;21.30;78.50;;;;;;5036354;28;20031;-84
2022/06/20 11:00:41;;;;;;;5.57;0.70;;;21.30;76.80;;;;;;5031255;28;20030;-84
2022/06/20 11:03:33;;;;;;;4.82;0.80;;;21.20;76.30;;;;;;5016089;28;20022;-84
2022/06/20 11:06:27;;;;;;;5.45;0.50;;;21.10;76.90;;;;;;5016104;28;20106;-84
2022/06/20 11:09:19;;;;;;;3.00;0.50;;;20.90;76.50;;;;;;5031061;28;20453;-84
2022/06/20 11:11:49;;;;;;;4.28;0.70;;;21.20;75.50;;;;;;5014265;28;20034;-85
2022/06/20 11:14:22;;;;;;;3.75;0.50;;;21.30;74.50;;;;;;5015853;28;20501;-84
2022/06/20 11:17:17;;;;;;;2.58;0.50;;;21.40;73.80;;;;;;5030926;28;20053;-84
2022/06/20 11:20:02;;;;;;;2.20;0.30;;;21.30;72.90;;;;;;5015927;28;20018;-84
2022/06/20 11:22:38;;;;;;;2.20;0.35;;;21.40;73.40;;;;;;5031227;28;20037;-85
2022/06/20 11:25:32;;;;;;;4.85;0.50;;;21.50;72.00;;;;;;5015665;28;20482;-84
2022/06/20 11:28:12;;;;;;;2.90;0.50;;;21.50;71.40;;;;;;5031006;28;20022;-84
2022/06/20 11:31:05;;;;;;;4.30;0.52;;;21.40;71.00;;;;;;5030598;28;20038;-84
2022/06/20 11:34:00;;;;;;;2.35;0.30;;;21.30;70.50;;;;;;5030759;28;20029;-84
2022/06/20 11:36:55;;;;;;;3.63;0.40;;;21.50;69.80;;;;;;5030744;28;20046;-84
2022/06/20 11:39:50;;;;;;;3.92;0.50;;;21.60;70.00;;;;;;5030778;28;20029;-84
2022/06/20 11:42:41;;;;;;;3.45;0.55;;;21.90;69.20;;;;;;5030741;28;20551;-85
2022/06/20 11:45:22;;;;;;;4.53;0.40;;;22.10;68.20;;;;;;5030308;28;20026;-84
2022/06/20 11:48:11;;;;;;;5.88;0.57;;;22.30;67.40;;;;;;5030500;28;20125;-84
2022/06/20 11:50:49;;;;;;;5.70;0.50;;;22.20;67.10;;;;;;5030345;28;20041;-85
2022/06/20 11:53:24;;;;;;;4.75;0.50;;;22.10;67.20;;;;;;5030252;28;20542;-84
2022/06/20 11:55:52;;;;;;;2.95;0.50;;;21.90;67.80;;;;;;5030473;28;20057;-84
2022/06/20 11:58:48;;;;;;;3.45;0.50;;;21.90;69.10;;;;;;5032156;28;20026;-85
2022/06/20 12:01:20;;;;;;;1.45;0.30;;;22.10;68.40;;;;;;5033521;28;20402;-84
2022/06/20 12:04:16;;;;;;;4.35;0.55;;;22.20;68.60;;;;;;5033746;28;20029;-84
2022/06/20 12:07:03;;;;;;;4.03;0.55;;;22.40;69.20;;;;;;5033320;28;20119;-84
2022/06/20 12:09:41;;;;;;;4.40;0.55;;;22.40;68.00;;;;;;5033391;28;20029;-84
2022/06/20 12:12:22;;;;;;;4.65;0.70;;;22.20;68.70;;;;;;5033081;28;20030;-83
2022/06/20 12:15:21;;;;;;;3.53;0.50;;;22.20;68.90;;;;;;5033214;28;20187;-84
2022/06/20 12:18:05;;;;;;;2.83;0.40;;;22.40;69.10;;;;;;5033237;28;20033;-85
2022/06/20 12:23:39;;;;;;;3.55;0.50;;;22.60;67.30;;;;;;5034211;28;20048;-84
2022/06/20 12:26:23;;;;;;;3.05;0.50;;;22.40;67.70;;;;;;5033025;28;20116;-84
2022/06/20 12:28:52;;;;;;;3.03;0.40;;;22.40;67.70;;;;;;5033058;28;20036;-84
2022/06/20 12:31:24;;;;;;;3.83;0.40;;;22.30;67.50;;;;;;5032877;28;20037;-85
2022/06/20 12:34:07;;;;;;;4.75;0.40;;;22.20;67.80;;;;;;5032874;28;20018;-84
2022/06/20 12:37:02;;;;;;;4.68;0.60;;;22.10;68.30;;;;;;5032881;28;20512;-85
2022/06/20 12:40:03;;;;;;;2.42;0.50;;;22.20;67.30;;;;;;5032835;28;20026;-85
2022/06/20 12:42:47;;;;;;;5.75;0.85;;;22.30;67.00;;;;;;5023894;28;20041;-84
2022/06/20 12:46:07;;;;;;;3.20;0.70;;;22.30;66.50;;;;;;5034002;28;20039;-84
2022/06/20 12:48:41;;;;;;;4.32;0.40;;;22.30;66.20;;;;;;5010655;28;20504;-84
2022/06/20 12:51:34;;;;;;;3.00;0.32;;;22.20;66.20;;;;;;5033744;28;20037;-85
2022/06/20 12:54:26;;;;;;;4.70;0.50;;;22.10;66.90;;;;;;5033690;28;20052;-85
2022/06/20 12:57:09;;;;;;;2.00;0.40;;;22.30;67.30;;;;;;5032212;28;20057;-85
2022/06/20 13:00:01;;;;;;;5.00;0.60;;;22.60;66.00;;;;;;5029471;28;20026;-84
2022/06/20 13:03:03;;;;;;;4.63;0.60;;;22.80;65.60;;;;;;5012411;28;20029;-85
2022/06/20 13:05:40;;;;;;;4.78;0.50;;;22.50;65.80;;;;;;5012685;28;20486;-85
2022/06/20 13:08:18;;;;;;;5.25;0.65;;;22.40;65.20;;;;;;5029354;28;20029;-85
2022/06/20 13:11:23;;;;;;;4.40;0.50;;;22.20;65.60;;;;;;5028991;28;20042;-85
2022/06/20 13:14:17;;;;;;;5.93;0.60;;;22.10;65.80;;;;;;5005846;28;20026;-84
2022/06/20 13:17:06;;;;;;;2.13;0.40;;;22.00;66.00;;;;;;5013944;28;20030;-84
2022/06/20 13:19:59;;;;;;;4.00;0.40;;;22.20;66.00;;;;;;5012764;28;20018;-85
2022/06/20 13:22:33;;;;;;;2.60;0.50;;;22.60;65.90;;;;;;5012705;28;20115;-85
2022/06/20 13:25:46;;;;;;;4.28;0.50;;;22.90;65.00;;;;;;5013913;28;20062;-85
2022/06/20 13:28:11;;;;;;;;;;;23.10;64.70;;;;;;4976508;28;20138;-85
2022/06/20 13:31:09;;;;;;;6.90;0.50;;;23.30;64.80;;;;;;5020710;28;19909;-84
2022/06/20 13:33:49;;;;;;;3.75;0.40;;;23.20;63.70;;;;;;5013787;28;20025;-85
2022/06/20 13:36:23;;;;;;;2.47;0.38;;;22.90;63.70;;;;;;5032335;28;20042;-86
2022/06/20 13:39:26;;;;;;;6.47;0.70;;;22.70;64.40;;;;;;5037467;28;20554;-85
2022/06/20 13:42:09;;;;;;;4.25;0.43;;;22.70;65.00;;;;;;5036483;28;20075;-85
2022/06/20 13:44:43;;;;;;;4.80;0.43;;;22.60;64.50;;;;;;5037426;28;20096;-85
2022/06/20 13:47:27;;;;;;;3.53;0.40;;;22.50;64.70;;;;;;5037144;28;20061;-86
2022/06/20 13:50:20;;;;;;;2.83;0.40;;;22.30;66.00;;;;;;5019820;28;20029;-86
2022/06/20 13:52:48;;;;;;;3.45;0.73;;;22.30;65.90;;;;;;5037367;28;20041;-85
2022/06/20 13:55:21;;;;;;;4.97;0.60;;;22.20;65.10;;;;;;5019583;28;20370;-85
2022/06/20 13:58:02;;;;;;;2.83;0.50;;;22.20;64.80;;;;;;5037211;28;20021;-85